Time;durP1;ratioP1;P1;durP2;ratioP2;P2;SDS_P1;SDS_P2;PMS_P1;PMS_P2;Temp;Humidity;BMP_temperature;BMP_pressure;BME280_temperature;BME280_humidity;BME280_pressure;Samples;Min_cycle;Max_cycle;Signal;HPM_P1;HPM_P2
2023/01/17 00:01:39;;;;;;;6.18;2.38;;;6.10;99.90;;;;;;5092632;28;20024;-63
2023/01/17 00:09:51;;;;;;;2.80;2.13;;;6.10;99.90;;;;;;5092221;28;20063;-63
2023/01/17 00:12:20;;;;;;;4.15;2.08;;;6.20;99.90;;;;;;5092498;28;20047;-63
2023/01/17 00:14:47;;;;;;;3.85;1.92;;;6.10;99.90;;;;;;5092473;28;20024;-62
2023/01/17 00:17:12;;;;;;;4.80;2.00;;;6.20;99.90;;;;;;5092511;28;20040;-63
2023/01/17 01:34:30;;;;;;;11.93;4.20;;;6.50;99.90;;;;;;5091776;28;20503;-63
2023/01/17 01:36:55;;;;;;;15.50;4.43;;;6.50;99.90;;;;;;5091649;28;20028;-63
2023/01/17 01:39:21;;;;;;;10.18;3.10;;;6.50;99.90;;;;;;5091632;28;20031;-63
2023/01/17 01:41:47;;;;;;;13.00;2.83;;;6.50;99.90;;;;;;5091751;28;20034;-62
2023/01/17 01:44:48;;;;;;;11.85;2.80;;;6.60;99.90;;;;;;5091553;28;20089;-63
2023/01/17 01:47:24;;;;;;;12.00;3.00;;;6.60;99.90;;;;;;5092893;28;20016;-63
2023/01/17 01:49:50;;;;;;;11.15;2.85;;;6.60;99.90;;;;;;5110789;28;20123;-63
2023/01/17 01:52:19;;;;;;;11.55;3.05;;;6.70;99.90;;;;;;5095726;28;20111;-63
2023/01/17 01:55:28;;;;;;;13.27;3.03;;;6.70;99.90;;;;;;5094960;28;20028;-63
2023/01/17 01:57:59;;;;;;;14.18;3.17;;;6.70;99.90;;;;;;5094465;28;20070;-63
2023/01/17 02:00:28;;;;;;;11.25;3.10;;;6.80;99.90;;;;;;5095415;28;20034;-63
2023/01/17 02:02:58;;;;;;;14.82;3.05;;;6.80;99.90;;;;;;5094421;28;20020;-62
2023/01/17 02:05:26;;;;;;;12.60;2.67;;;6.90;99.90;;;;;;5095135;28;20024;-63
2023/01/17 02:08:00;;;;;;;12.20;2.88;;;6.80;99.90;;;;;;5094722;28;20047;-63
2023/01/17 02:10:26;;;;;;;15.48;2.92;;;6.90;99.90;;;;;;5094881;28;20058;-63
2023/01/17 02:12:53;;;;;;;13.98;2.67;;;6.90;99.90;;;;;;5094897;28;20115;-63
2023/01/17 02:15:28;;;;;;;14.70;2.60;;;6.90;99.90;;;;;;5094564;28;20024;-63
2023/01/17 02:18:14;;;;;;;15.18;2.90;;;6.90;99.90;;;;;;5094202;28;20067;-63
2023/01/17 02:20:58;;;;;;;13.57;2.78;;;6.90;99.90;;;;;;5094236;28;20085;-63
2023/01/17 02:23:32;;;;;;;10.63;2.60;;;6.90;99.90;;;;;;5094799;28;20032;-63
2023/01/17 02:26:30;;;;;;;14.15;3.15;;;6.90;99.90;;;;;;5094416;28;20032;-63
2023/01/17 02:29:19;;;;;;;17.50;3.10;;;7.00;99.90;;;;;;5072297;28;20056;-62
2023/01/17 02:31:57;;;;;;;17.65;3.00;;;7.00;99.90;;;;;;5071424;28;20476;-63
2023/01/17 02:34:47;;;;;;;12.52;3.17;;;7.00;99.90;;;;;;5071798;28;20363;-63
2023/01/17 02:37:22;;;;;;;15.63;3.85;;;7.10;99.90;;;;;;5071859;28;20090;-63
2023/01/17 02:40:11;;;;;;;13.35;3.50;;;7.10;99.90;;;;;;5071691;28;20473;-63
2023/01/17 02:42:43;;;;;;;18.48;4.18;;;7.10;99.90;;;;;;5072154;28;20037;-63
2023/01/17 02:45:16;;;;;;;14.57;4.00;;;7.20;99.90;;;;;;5071462;28;20091;-63
2023/01/17 02:47:41;;;;;;;15.77;3.88;;;7.20;99.90;;;;;;5071498;28;20035;-63
2023/01/17 02:50:14;;;;;;;15.40;3.50;;;7.20;99.90;;;;;;5071055;28;20452;-63
2023/01/17 02:53:29;;;;;;;15.73;3.25;;;7.10;99.90;;;;;;5071775;28;20512;-62
2023/01/17 02:56:08;;;;;;;14.48;3.47;;;7.20;99.90;;;;;;5031867;28;20040;-63
2023/01/17 02:59:25;;;;;;;13.13;3.10;;;7.10;99.90;;;;;;5030829;28;20505;-62
2023/01/17 03:02:09;;;;;;;12.48;3.40;;;7.20;99.90;;;;;;5031444;28;20397;-63
2023/01/17 03:04:50;;;;;;;18.95;3.50;;;7.30;99.90;;;;;;5020785;28;20042;-62
2023/01/17 03:07:20;;;;;;;12.52;3.15;;;7.20;99.90;;;;;;5022204;28;20419;-62
2023/01/17 03:09:52;;;;;;;13.80;2.95;;;7.10;99.90;;;;;;5031606;28;20437;-63
2023/01/17 03:12:19;;;;;;;13.68;2.83;;;7.20;99.90;;;;;;5031092;28;20433;-63
2023/01/17 03:14:45;;;;;;;11.10;2.60;;;7.30;99.90;;;;;;5030930;28;20072;-63
2023/01/17 03:17:11;;;;;;;14.10;2.83;;;7.30;99.90;;;;;;5031203;28;20057;-63
2023/01/17 03:19:36;;;;;;;8.10;2.40;;;7.30;99.90;;;;;;5031080;28;20510;-63
2023/01/17 03:22:02;;;;;;;12.30;2.70;;;7.30;99.90;;;;;;5031615;28;20029;-63
2023/01/17 03:24:28;;;;;;;12.30;2.95;;;7.40;99.90;;;;;;5031152;28;20517;-63
2023/01/17 03:26:53;;;;;;;12.73;2.60;;;7.50;99.90;;;;;;5030912;28;20041;-63
2023/01/17 03:29:19;;;;;;;11.73;2.65;;;7.60;99.90;;;;;;5030451;28;20176;-63
2023/01/17 03:31:45;;;;;;;13.88;2.70;;;7.70;99.90;;;;;;5034936;28;20550;-63
2023/01/17 03:34:11;;;;;;;15.57;3.03;;;7.80;99.90;;;;;;5072893;28;20036;-63
2023/01/17 03:36:37;;;;;;;16.67;3.00;;;7.80;99.90;;;;;;5073117;28;20481;-63
2023/01/17 03:39:03;;;;;;;14.07;3.05;;;7.80;99.90;;;;;;5072735;28;20024;-63
2023/01/17 03:41:29;;;;;;;35.17;3.92;;;7.80;99.90;;;;;;5073222;28;20074;-63
2023/01/17 03:43:54;;;;;;;16.70;3.30;;;7.80;99.90;;;;;;5072352;28;20032;-63
2023/01/17 03:46:26;;;;;;;18.33;3.25;;;7.80;99.90;;;;;;5079706;28;20469;-63
2023/01/17 03:48:52;;;;;;;16.38;3.63;;;7.80;99.90;;;;;;5092777;28;20028;-63
2023/01/17 03:51:18;;;;;;;13.50;3.10;;;7.80;99.90;;;;;;5093153;28;20028;-62
2023/01/17 03:53:45;;;;;;;14.48;2.97;;;7.90;99.90;;;;;;5092958;28;20078;-63
2023/01/17 03:56:12;;;;;;;14.00;3.08;;;8.00;99.90;;;;;;5092727;28;20103;-62
2023/01/17 03:58:38;;;;;;;5.38;1.52;;;8.00;99.90;;;;;;5092306;28;20059;-63
2023/01/17 04:01:04;;;;;;;5.07;1.13;;;7.80;99.90;;;;;;5092771;28;20044;-62
2023/01/17 04:03:30;;;;;;;3.10;0.93;;;7.80;99.90;;;;;;5092816;28;20095;-63
2023/01/17 04:05:55;;;;;;;3.05;1.00;;;7.80;99.90;;;;;;5092610;28;20435;-63
2023/01/17 04:08:21;;;;;;;2.17;0.85;;;7.70;99.90;;;;;;5072903;28;20077;-63
2023/01/17 04:10:47;;;;;;;3.90;1.10;;;7.70;99.90;;;;;;5087037;28;20045;-63
2023/01/17 04:13:13;;;;;;;18.17;1.60;;;7.70;99.90;;;;;;5071763;28;20071;-63
2023/01/17 04:15:39;;;;;;;6.43;1.38;;;7.70;99.90;;;;;;5072347;28;20024;-62
2023/01/17 04:18:05;;;;;;;4.38;1.00;;;7.60;99.90;;;;;;5072256;28;20028;-62
2023/01/17 04:20:36;;;;;;;2.88;1.00;;;7.60;99.90;;;;;;5072624;28;20393;-63
2023/01/17 04:23:02;;;;;;;3.45;1.10;;;7.60;99.90;;;;;;5072240;28;20032;-63
2023/01/17 04:25:29;;;;;;;7.95;1.60;;;7.60;99.90;;;;;;5072234;28;20104;-63
2023/01/17 04:27:56;;;;;;;9.10;1.40;;;7.70;99.90;;;;;;5071836;28;20028;-63
2023/01/17 04:30:22;;;;;;;7.72;1.67;;;7.80;99.90;;;;;;5072437;28;20030;-63
2023/01/17 04:32:48;;;;;;;9.73;1.98;;;7.90;99.90;;;;;;5072174;28;20059;-62
2023/01/17 04:35:14;;;;;;;10.07;2.00;;;7.90;99.90;;;;;;5071996;28;20477;-63
2023/01/17 04:37:40;;;;;;;12.52;2.20;;;8.10;99.90;;;;;;5072234;28;20067;-63
2023/01/17 04:40:06;;;;;;;14.68;2.60;;;8.10;99.90;;;;;;5071907;28;20067;-62
2023/01/17 04:42:32;;;;;;;14.15;2.72;;;8.10;99.90;;;;;;5071566;28;20024;-62
2023/01/17 04:44:58;;;;;;;18.33;2.97;;;8.10;99.90;;;;;;5072107;28;20146;-63
2023/01/17 04:47:23;;;;;;;19.55;2.92;;;8.00;99.90;;;;;;5087802;28;20017;-63
2023/01/17 04:49:49;;;;;;;13.07;2.72;;;7.90;99.90;;;;;;5092199;28;20144;-63
2023/01/17 04:52:17;;;;;;;18.27;2.60;;;7.90;99.90;;;;;;5092566;28;20028;-63
2023/01/17 04:54:43;;;;;;;14.55;3.30;;;7.80;99.90;;;;;;5092083;28;20093;-63
2023/01/17 04:57:09;;;;;;;18.23;3.10;;;7.80;99.90;;;;;;5091758;28;20024;-63
2023/01/17 04:59:35;;;;;;;12.07;2.78;;;8.00;99.90;;;;;;5091914;28;20575;-63
2023/01/17 05:02:00;;;;;;;13.00;2.83;;;8.00;99.90;;;;;;5092060;28;20077;-63
2023/01/17 05:04:26;;;;;;;15.45;3.10;;;8.00;99.90;;;;;;5092406;28;20039;-63
2023/01/17 05:06:52;;;;;;;14.30;3.10;;;8.00;99.90;;;;;;5091785;28;20317;-63
2023/01/17 05:09:17;;;;;;;16.35;3.20;;;8.00;99.90;;;;;;5091754;28;20512;-63
2023/01/17 05:11:43;;;;;;;17.20;3.00;;;8.00;99.90;;;;;;5091393;28;20020;-63
2023/01/17 05:14:10;;;;;;;19.33;3.17;;;7.90;99.90;;;;;;5091926;28;20492;-63
2023/01/17 05:16:35;;;;;;;17.10;3.08;;;7.90;99.90;;;;;;5092327;28;20016;-63
2023/01/17 05:19:01;;;;;;;17.02;3.50;;;7.90;99.90;;;;;;5091745;28;20035;-63
2023/01/17 05:21:27;;;;;;;20.42;3.28;;;7.80;99.90;;;;;;5094119;28;20031;-63
2023/01/17 05:23:53;;;;;;;15.77;2.95;;;7.60;99.90;;;;;;5096126;28;20484;-63
2023/01/17 05:26:18;;;;;;;17.65;3.30;;;7.60;99.90;;;;;;5095227;28;20380;-63
2023/01/17 05:28:44;;;;;;;16.95;3.13;;;7.40;99.90;;;;;;5095502;28;20024;-63
2023/01/17 05:31:10;;;;;;;12.73;2.90;;;7.30;99.90;;;;;;5095856;28;20027;-62
2023/01/17 05:33:36;;;;;;;18.73;3.58;;;7.30;99.90;;;;;;5095554;28;20535;-63
2023/01/17 05:36:02;;;;;;;14.68;2.72;;;7.20;99.90;;;;;;5095390;28;20024;-62
2023/01/17 05:38:28;;;;;;;18.98;3.00;;;7.40;99.90;;;;;;5095252;28;20024;-63
2023/01/17 05:40:54;;;;;;;12.55;2.80;;;7.40;99.90;;;;;;5095328;28;20039;-63
2023/01/17 05:43:21;;;;;;;14.32;3.35;;;7.50;99.90;;;;;;5095299;28;20107;-63
2023/01/17 05:45:48;;;;;;;16.27;2.67;;;7.50;99.90;;;;;;5095300;28;20228;-63
2023/01/17 05:48:14;;;;;;;15.13;2.83;;;7.60;99.90;;;;;;5095093;28;20036;-63
2023/01/17 05:50:40;;;;;;;18.00;2.92;;;7.60;99.90;;;;;;5095487;28;20491;-62
2023/01/17 05:53:09;;;;;;;15.15;3.10;;;7.60;99.90;;;;;;5095185;28;20499;-63
2023/01/17 05:55:35;;;;;;;15.75;3.03;;;7.60;99.90;;;;;;5110636;28;20115;-63
2023/01/17 05:58:02;;;;;;;15.93;2.70;;;7.60;99.90;;;;;;5095067;28;20103;-63
2023/01/17 06:00:29;;;;;;;14.98;2.70;;;7.60;99.90;;;;;;5094793;28;20028;-63
2023/01/17 06:02:56;;;;;;;10.73;2.78;;;7.80;99.90;;;;;;5094961;28;20077;-63
2023/01/17 06:05:23;;;;;;;17.38;3.20;;;7.70;99.90;;;;;;5095183;28;20103;-63
2023/01/17 06:07:49;;;;;;;13.05;2.50;;;7.70;99.90;;;;;;5094253;28;20452;-63
2023/01/17 06:10:16;;;;;;;10.27;2.42;;;7.80;99.90;;;;;;5094782;28;20048;-63
2023/01/17 06:12:44;;;;;;;11.50;2.40;;;7.70;99.90;;;;;;5094600;28;20035;-63
2023/01/17 06:15:11;;;;;;;7.38;2.08;;;7.80;99.90;;;;;;5094720;28;20028;-63
2023/01/17 06:17:37;;;;;;;10.88;2.30;;;7.90;99.90;;;;;;5094618;28;20110;-63
2023/01/17 06:20:05;;;;;;;10.50;2.30;;;7.90;99.90;;;;;;5095102;28;20099;-63
2023/01/17 06:22:31;;;;;;;10.45;2.63;;;7.80;99.90;;;;;;5094411;28;20019;-63
2023/01/17 06:24:57;;;;;;;9.90;2.33;;;7.70;99.90;;;;;;5094463;28;20044;-62
2023/01/17 06:27:23;;;;;;;12.30;3.25;;;7.80;99.90;;;;;;5094425;28;20055;-63
2023/01/17 06:29:48;;;;;;;12.52;2.60;;;7.90;99.90;;;;;;5094427;28;20020;-63
2023/01/17 06:32:14;;;;;;;12.57;2.40;;;7.80;99.90;;;;;;5093498;28;20032;-63
2023/01/17 06:34:40;;;;;;;9.70;2.65;;;7.70;99.90;;;;;;5094023;28;20063;-61
2023/01/17 06:37:07;;;;;;;14.00;3.10;;;7.80;99.90;;;;;;5076406;28;20032;-63
2023/01/17 06:39:33;;;;;;;14.02;3.38;;;7.80;99.90;;;;;;5074007;28;20048;-63
2023/01/17 06:41:59;;;;;;;12.98;3.10;;;7.90;99.90;;;;;;5073341;28;20073;-63
2023/01/17 06:44:27;;;;;;;15.35;2.72;;;7.90;99.90;;;;;;5074053;28;20107;-62
2023/01/17 06:46:53;;;;;;;14.02;2.70;;;7.90;99.90;;;;;;5085284;28;20043;-62
2023/01/17 06:49:19;;;;;;;9.07;2.45;;;7.80;99.90;;;;;;5093916;28;20028;-62
2023/01/17 06:51:45;;;;;;;8.73;1.90;;;7.70;99.90;;;;;;5094067;28;20030;-62
2023/01/17 06:54:10;;;;;;;9.25;2.30;;;7.60;99.90;;;;;;5093883;28;20028;-62
2023/01/17 06:56:36;;;;;;;12.88;2.47;;;7.60;99.90;;;;;;5093975;28;20031;-63
2023/01/17 06:59:03;;;;;;;13.20;2.47;;;7.50;99.90;;;;;;5093516;28;20024;-62
2023/01/17 07:01:29;;;;;;;12.02;3.00;;;7.60;99.90;;;;;;5093913;28;20119;-63
2023/01/17 07:03:55;;;;;;;16.77;3.42;;;7.60;99.90;;;;;;5094161;28;20046;-63
2023/01/17 07:06:23;;;;;;;12.25;2.42;;;7.50;99.90;;;;;;5093198;28;20028;-63
2023/01/17 07:08:49;;;;;;;14.95;2.72;;;7.40;99.90;;;;;;5093462;28;20492;-62
2023/01/17 07:11:15;;;;;;;13.35;2.67;;;7.40;99.90;;;;;;5093579;28;20052;-63
2023/01/17 07:13:41;;;;;;;13.85;2.75;;;7.40;99.90;;;;;;5093719;28;20023;-63
2023/01/17 07:16:07;;;;;;;13.63;2.67;;;7.30;99.90;;;;;;5092036;28;20063;-61
2023/01/17 07:18:33;;;;;;;17.40;3.53;;;7.30;99.90;;;;;;5093439;28;20024;-62
2023/01/17 07:20:59;;;;;;;17.30;3.20;;;7.40;99.90;;;;;;5093161;28;20016;-62
2023/01/17 07:23:25;;;;;;;12.40;3.00;;;7.30;99.90;;;;;;5093197;28;20465;-61
2023/01/17 07:25:56;;;;;;;14.88;2.70;;;7.20;99.90;;;;;;5093460;28;20023;-62
2023/01/17 07:28:22;;;;;;;16.10;3.45;;;7.20;99.90;;;;;;5093172;28;20028;-62
2023/01/17 07:30:48;;;;;;;17.73;3.40;;;7.20;99.90;;;;;;5092539;28;20027;-61
2023/01/17 07:33:14;;;;;;;17.92;3.42;;;7.20;99.90;;;;;;5092406;28;20396;-61
2023/01/17 07:35:40;;;;;;;15.68;3.25;;;7.30;99.90;;;;;;5092681;28;20016;-62
2023/01/17 07:38:10;;;;;;;14.50;3.03;;;7.20;99.90;;;;;;5092895;28;20020;-62
2023/01/17 07:40:36;;;;;;;18.88;3.55;;;7.20;99.90;;;;;;5092963;28;20076;-62
2023/01/17 07:43:11;;;;;;;15.50;3.00;;;7.20;99.90;;;;;;5092925;28;20027;-63
2023/01/17 07:45:49;;;;;;;19.02;3.40;;;7.20;99.90;;;;;;5092738;28;20429;-63
2023/01/17 07:48:16;;;;;;;20.98;3.95;;;7.30;99.90;;;;;;5093180;28;20035;-63
2023/01/17 07:50:42;;;;;;;19.80;7.05;;;7.30;99.90;;;;;;5092582;28;20070;-63
2023/01/17 07:53:09;;;;;;;7.32;2.60;;;7.30;99.90;;;;;;5092804;28;20035;-62
2023/01/17 07:55:35;;;;;;;7.95;1.80;;;6.90;99.90;;;;;;5092716;28;20028;-63
2023/01/17 07:58:01;;;;;;;3.70;1.13;;;6.60;99.90;;;;;;5092447;28;20020;-63
2023/01/17 08:00:27;;;;;;;7.57;1.65;;;6.50;99.90;;;;;;5093121;28;20031;-62
2023/01/17 08:02:57;;;;;;;7.30;1.52;;;6.50;99.90;;;;;;5092638;28;20059;-60
2023/01/17 08:05:23;;;;;;;12.45;2.58;;;6.40;99.90;;;;;;5092004;28;20032;-63
2023/01/17 08:07:49;;;;;;;10.07;2.08;;;6.50;99.90;;;;;;5092648;28;20119;-62
2023/01/17 08:10:16;;;;;;;9.90;2.10;;;6.50;99.90;;;;;;5092238;28;20039;-63
2023/01/17 08:12:47;;;;;;;10.05;1.80;;;6.40;99.90;;;;;;5092115;28;20127;-61
2023/01/17 08:15:16;;;;;;;13.45;2.83;;;6.50;99.90;;;;;;5092674;28;20044;-62
2023/01/17 08:17:51;;;;;;;9.65;2.47;;;6.40;99.90;;;;;;5091943;28;20081;-62
2023/01/17 08:20:18;;;;;;;12.05;2.55;;;6.30;99.90;;;;;;5091849;28;20047;-62
2023/01/17 08:22:43;;;;;;;12.02;2.53;;;6.40;99.90;;;;;;5092219;28;20026;-61
2023/01/17 08:25:10;;;;;;;10.70;2.58;;;6.40;99.90;;;;;;5092452;28;20020;-63
2023/01/17 08:27:35;;;;;;;9.15;2.10;;;6.50;99.90;;;;;;5092561;28;20040;-63
2023/01/17 08:30:01;;;;;;;10.93;2.40;;;6.60;99.90;;;;;;5092131;28;20473;-62
2023/01/17 08:32:27;;;;;;;8.02;3.17;;;6.60;99.90;;;;;;5091775;28;20032;-63
2023/01/17 08:34:55;;;;;;;8.27;3.30;;;6.60;99.90;;;;;;5091196;28;20472;-61
2023/01/17 08:37:21;;;;;;;9.48;2.15;;;6.60;99.90;;;;;;5091168;28;20024;-62
2023/01/17 08:39:46;;;;;;;11.10;2.10;;;6.70;99.90;;;;;;5092073;28;20027;-63
2023/01/17 08:42:12;;;;;;;15.10;2.60;;;6.80;99.90;;;;;;5092116;28;20024;-62
2023/01/17 08:44:38;;;;;;;11.02;2.42;;;6.80;99.90;;;;;;5092341;28;20457;-62
2023/01/17 08:47:04;;;;;;;9.75;2.10;;;6.90;99.90;;;;;;5092021;28;20020;-62
2023/01/17 08:49:30;;;;;;;10.38;2.30;;;6.90;99.90;;;;;;5091669;28;20028;-62
2023/01/17 08:51:55;;;;;;;12.50;2.40;;;6.90;99.90;;;;;;5092079;28;20061;-62
2023/01/17 08:54:21;;;;;;;14.25;2.90;;;6.80;99.90;;;;;;5092473;28;20024;-63
2023/01/17 08:56:48;;;;;;;12.98;3.05;;;6.80;99.90;;;;;;5092160;28;20024;-62
2023/01/17 08:59:14;;;;;;;11.85;3.20;;;6.80;99.90;;;;;;5093799;28;20065;-62
2023/01/17 09:01:40;;;;;;;15.07;3.83;;;6.80;99.90;;;;;;5094915;28;20020;-62
2023/01/17 09:04:09;;;;;;;12.27;3.38;;;6.80;99.90;;;;;;5095437;28;20084;-62
2023/01/17 09:06:41;;;;;;;14.25;3.13;;;6.90;99.90;;;;;;5092863;28;20024;-62
2023/01/17 09:09:10;;;;;;;12.23;2.78;;;6.90;99.90;;;;;;5075007;28;20044;-62
2023/01/17 09:11:36;;;;;;;14.82;3.30;;;7.00;99.90;;;;;;5075494;28;20028;-62
2023/01/17 09:14:02;;;;;;;11.23;3.05;;;7.20;99.90;;;;;;5075391;28;20028;-62
2023/01/17 09:16:28;;;;;;;12.68;2.67;;;7.30;99.90;;;;;;5074956;28;20417;-62
2023/01/17 09:18:56;;;;;;;14.40;2.72;;;7.30;99.90;;;;;;5075030;28;20067;-62
2023/01/17 09:21:22;;;;;;;9.52;2.40;;;7.40;99.90;;;;;;5075604;28;20389;-63
2023/01/17 09:23:48;;;;;;;11.48;2.50;;;7.40;99.90;;;;;;5075418;28;20380;-63
2023/01/17 09:26:28;;;;;;;13.45;3.42;;;7.60;99.90;;;;;;5075254;28;20021;-63
2023/01/17 09:28:54;;;;;;;11.45;3.08;;;8.90;99.90;;;;;;5075354;28;20024;-63
2023/01/17 09:31:22;;;;;;;14.23;3.63;;;8.60;99.90;;;;;;5075078;28;20078;-63
2023/01/17 09:33:50;;;;;;;11.10;2.47;;;8.30;99.90;;;;;;5075154;28;20035;-63
2023/01/17 09:36:15;;;;;;;11.07;2.33;;;8.00;99.90;;;;;;5074938;28;20485;-63
2023/01/17 09:38:41;;;;;;;13.00;2.53;;;8.20;99.90;;;;;;5075106;28;20055;-63
2023/01/17 09:41:20;;;;;;;11.25;2.55;;;8.20;99.90;;;;;;5075586;28;20503;-63
2023/01/17 09:43:55;;;;;;;13.82;2.65;;;8.20;99.90;;;;;;5075054;28;20024;-63
2023/01/17 09:46:25;;;;;;;10.40;2.42;;;8.80;99.90;;;;;;5081546;28;20586;-63
2023/01/17 09:49:12;;;;;;;12.90;2.45;;;9.50;99.90;;;;;;5095112;28;20107;-63
2023/01/17 09:51:37;;;;;;;14.30;2.60;;;10.10;99.90;;;;;;5095094;28;20031;-63
2023/01/17 09:54:04;;;;;;;17.83;3.65;;;10.40;99.90;;;;;;5095060;28;20400;-63
2023/01/17 09:56:47;;;;;;;10.63;2.80;;;10.30;99.90;;;;;;5095132;28;20380;-63
2023/01/17 09:59:19;;;;;;;10.63;2.60;;;10.10;99.90;;;;;;5094910;28;20048;-63
2023/01/17 10:01:51;;;;;;;8.27;1.83;;;9.60;99.90;;;;;;5094476;28;20396;-63
2023/01/17 10:04:40;;;;;;;7.45;1.52;;;9.00;99.90;;;;;;5095355;28;20063;-63
2023/01/17 10:07:18;;;;;;;6.20;1.15;;;8.40;99.90;;;;;;5093460;28;20030;-63
2023/01/17 10:10:20;;;;;;;6.28;1.25;;;7.80;99.90;;;;;;5094616;28;20055;-63
2023/01/17 10:13:19;;;;;;;2.97;1.00;;;7.60;99.90;;;;;;5094503;28;20039;-63
2023/01/17 10:16:11;;;;;;;5.15;1.35;;;7.50;99.90;;;;;;5094442;28;20115;-63
2023/01/17 10:18:58;;;;;;;6.47;1.58;;;7.60;99.90;;;;;;5094648;28;20038;-63
2023/01/17 10:21:48;;;;;;;7.43;1.90;;;8.70;99.90;;;;;;5094615;28;20020;-63
2023/01/17 10:24:44;;;;;;;4.97;1.60;;;12.00;99.90;;;;;;5094345;28;20190;-62
2023/01/17 10:27:30;;;;;;;4.97;1.40;;;13.90;99.90;;;;;;5094504;28;20012;-61
2023/01/17 10:29:56;;;;;;;7.65;2.00;;;13.90;99.90;;;;;;5093914;28;20445;-61
2023/01/17 10:32:28;;;;;;;7.85;2.05;;;10.30;99.90;;;;;;5094131;28;20062;-60
2023/01/17 10:35:00;;;;;;;6.53;1.70;;;8.70;99.90;;;;;;5094223;28;20366;-61
2023/01/17 10:37:40;;;;;;;11.52;2.15;;;8.20;99.90;;;;;;5094053;28;20485;-62
2023/01/17 10:40:15;;;;;;;13.00;2.60;;;8.00;99.90;;;;;;5094500;28;20047;-60
2023/01/17 10:43:01;;;;;;;10.65;2.28;;;8.00;99.90;;;;;;5094014;28;20488;-61
2023/01/17 10:45:27;;;;;;;16.42;2.70;;;7.80;99.90;;;;;;5093680;28;20059;-62
2023/01/17 10:48:10;;;;;;;10.20;2.30;;;7.90;99.90;;;;;;5093807;28;20430;-61
2023/01/17 10:50:58;;;;;;;10.30;2.50;;;7.90;99.90;;;;;;5094369;28;20433;-61
2023/01/17 10:53:55;;;;;;;12.77;2.78;;;9.20;99.90;;;;;;5094415;28;20036;-62
2023/01/17 10:56:26;;;;;;;9.57;2.60;;;11.40;99.90;;;;;;5091008;28;20033;-61
2023/01/17 10:59:10;;;;;;;10.38;2.10;;;14.30;99.90;;;;;;5093412;28;20443;-61
2023/01/17 11:01:37;;;;;;;9.70;2.15;;;15.90;99.90;;;;;;5093752;28;20111;-61
2023/01/17 11:04:10;;;;;;;7.60;2.22;;;15.60;99.90;;;;;;5093481;28;20476;-62
2023/01/17 11:06:37;;;;;;;7.53;1.88;;;13.60;99.90;;;;;;5093406;28;20543;-61
2023/01/17 11:09:09;;;;;;;8.98;2.13;;;13.40;99.90;;;;;;5093693;28;20073;-62
2023/01/17 11:11:45;;;;;;;9.25;2.28;;;11.80;99.90;;;;;;5093488;28;20039;-62
2023/01/17 11:14:29;;;;;;;9.13;1.90;;;13.40;99.90;;;;;;5093010;28;20496;-61
2023/01/17 11:17:01;;;;;;;10.20;2.35;;;14.80;99.90;;;;;;5093593;28;20111;-63
2023/01/17 11:19:30;;;;;;;8.38;2.38;;;14.60;99.90;;;;;;5092456;28;20103;-63
2023/01/17 11:22:00;;;;;;;10.65;2.40;;;12.10;99.90;;;;;;5092309;28;20508;-63
2023/01/17 11:24:47;;;;;;;12.55;3.67;;;12.30;99.90;;;;;;5092431;28;20444;-62
2023/01/17 11:27:30;;;;;;;9.05;2.65;;;11.60;99.90;;;;;;5093304;28;20020;-63
2023/01/17 11:30:14;;;;;;;13.15;5.00;;;13.10;99.90;;;;;;5093247;28;20077;-63
2023/01/17 11:32:52;;;;;;;13.35;2.80;;;15.70;99.90;;;;;;5093142;28;20039;-62
2023/01/17 11:35:20;;;;;;;9.23;2.55;;;13.60;99.90;;;;;;5093247;28;20023;-63
2023/01/17 11:38:10;;;;;;;10.57;2.00;;;12.00;99.90;;;;;;5093068;28;20031;-63
2023/01/17 11:40:41;;;;;;;11.60;2.70;;;10.80;99.90;;;;;;5093136;28;20107;-63
2023/01/17 11:43:23;;;;;;;21.75;11.10;;;12.90;99.90;;;;;;5092514;28;20028;-62
2023/01/17 11:46:05;;;;;;;11.32;5.07;;;12.60;99.90;;;;;;5092941;28;20024;-63
2023/01/17 11:48:36;;;;;;;10.98;6.22;;;12.20;99.90;;;;;;5093031;28;20099;-63
2023/01/17 11:51:10;;;;;;;13.30;5.68;;;12.90;99.90;;;;;;5093389;28;20081;-62
2023/01/17 11:53:39;;;;;;;16.98;12.80;;;13.60;99.90;;;;;;5092891;28;20125;-62
2023/01/17 11:56:21;;;;;;;10.85;6.22;;;11.80;99.90;;;;;;5092381;28;20039;-62
2023/01/17 11:58:48;;;;;;;14.10;6.07;;;11.80;99.90;;;;;;5092714;28;20066;-62
2023/01/17 12:01:30;;;;;;;14.15;5.82;;;11.90;99.90;;;;;;5092632;28;20027;-63
2023/01/17 12:04:07;;;;;;;12.10;3.10;;;11.60;99.90;;;;;;5092504;28;20127;-64
2023/01/17 12:07:07;;;;;;;8.48;2.45;;;11.10;99.90;;;;;;5092342;28;20038;-63
2023/01/17 12:10:02;;;;;;;12.30;5.40;;;11.00;99.90;;;;;;5092120;28;20485;-64
2023/01/17 12:15:45;;;;;;;10.38;2.90;;;10.60;99.90;;;;;;5092973;28;20496;-64
2023/01/17 12:18:32;;;;;;;25.73;19.48;;;10.30;99.90;;;;;;5092842;28;20450;-63
2023/01/17 12:21:29;;;;;;;34.17;23.27;;;10.00;99.90;;;;;;5092459;28;20042;-63
2023/01/17 12:24:23;;;;;;;161.75;112.43;;;9.80;99.90;;;;;;5092201;28;20035;-63
2023/01/17 12:27:13;;;;;;;325.92;213.65;;;9.50;99.90;;;;;;5091694;28;20012;-63
2023/01/17 12:29:44;;;;;;;27.25;18.48;;;9.40;99.90;;;;;;5091652;28;20039;-64
2023/01/17 12:32:24;;;;;;;26.45;20.60;;;9.20;99.90;;;;;;5090858;28;20504;-62
2023/01/17 12:35:21;;;;;;;25.55;15.85;;;8.90;99.90;;;;;;5092289;28;20081;-61
2023/01/17 12:37:51;;;;;;;9.15;4.25;;;8.50;99.90;;;;;;5091953;28;20028;-63
2023/01/17 12:40:36;;;;;;;7.72;4.78;;;8.30;99.90;;;;;;5092272;28;20016;-62
2023/01/17 12:43:31;;;;;;;6.57;2.20;;;8.20;99.90;;;;;;5092078;28;20028;-62
2023/01/17 12:46:02;;;;;;;9.45;2.67;;;8.10;99.90;;;;;;5091223;28;20025;-62
2023/01/17 12:48:34;;;;;;;7.72;3.00;;;8.10;99.90;;;;;;5092571;28;20435;-62
2023/01/17 12:51:17;;;;;;;10.93;2.97;;;8.00;99.90;;;;;;5092267;28;20031;-62
2023/01/17 12:53:57;;;;;;;13.95;3.47;;;7.80;99.90;;;;;;5091766;28;20036;-62
2023/01/17 12:56:47;;;;;;;11.07;3.10;;;7.90;99.90;;;;;;5091863;28;20074;-62
2023/01/17 12:59:43;;;;;;;12.38;3.75;;;8.00;99.90;;;;;;5072007;28;20033;-63
2023/01/17 13:02:34;;;;;;;11.73;5.45;;;8.00;99.90;;;;;;5072208;28;20077;-63
2023/01/17 13:05:10;;;;;;;16.92;7.18;;;8.00;99.90;;;;;;5071725;28;20470;-63
2023/01/17 13:08:01;;;;;;;14.13;6.13;;;8.20;99.90;;;;;;5085243;28;20194;-62
2023/01/17 13:10:44;;;;;;;16.83;11.73;;;8.30;99.90;;;;;;5091319;28;20048;-63
2023/01/17 13:13:18;;;;;;;21.58;15.63;;;8.50;99.90;;;;;;5091879;28;20060;-63
2023/01/17 13:15:47;;;;;;;25.17;17.23;;;8.50;99.90;;;;;;5091812;28;20032;-62
2023/01/17 13:18:21;;;;;;;69.85;61.38;;;8.70;99.90;;;;;;5092196;28;20020;-63
2023/01/17 13:21:05;;;;;;;86.85;71.55;;;9.30;99.90;;;;;;5091377;28;20035;-62
2023/01/17 13:23:39;;;;;;;14.25;4.53;;;9.60;99.90;;;;;;5091547;28;20099;-63
2023/01/17 13:26:18;;;;;;;22.58;12.40;;;9.50;99.90;;;;;;5092075;28;20036;-63
2023/01/17 13:29:02;;;;;;;103.75;78.03;;;9.30;99.90;;;;;;5091769;28;20074;-63
2023/01/17 13:32:06;;;;;;;61.10;48.63;;;9.20;99.90;;;;;;5091708;28;20016;-63
2023/01/17 13:34:56;;;;;;;147.00;112.47;;;9.30;99.90;;;;;;5091046;28;20114;-63
2023/01/17 13:37:39;;;;;;;15.77;6.38;;;9.30;99.90;;;;;;5091552;28;20044;-63
2023/01/17 13:40:24;;;;;;;252.18;191.30;;;9.30;99.90;;;;;;5091518;28;20070;-63
2023/01/17 13:42:58;;;;;;;118.60;89.40;;;9.50;99.90;;;;;;5094426;28;20024;-63
2023/01/17 13:45:51;;;;;;;14.02;5.28;;;9.50;99.90;;;;;;5095291;28;20024;-63
2023/01/17 13:48:17;;;;;;;25.30;18.63;;;9.30;99.90;;;;;;5074902;28;20512;-62
2023/01/17 13:50:46;;;;;;;21.70;13.73;;;9.00;99.90;;;;;;5075389;28;20103;-64
2023/01/17 13:53:33;;;;;;;26.55;23.77;;;8.80;99.90;;;;;;5074392;28;20043;-63
2023/01/17 13:56:17;;;;;;;8.25;3.70;;;9.20;99.90;;;;;;5074606;28;20039;-62
2023/01/17 13:58:47;;;;;;;10.82;4.90;;;9.00;99.90;;;;;;5074789;28;20025;-63
2023/01/17 14:01:13;;;;;;;15.02;7.03;;;8.90;99.90;;;;;;5074829;28;20029;-63
2023/01/17 14:03:45;;;;;;;14.23;5.30;;;8.80;99.90;;;;;;5075036;28;20021;-62
2023/01/17 14:06:39;;;;;;;11.13;5.97;;;8.50;99.90;;;;;;5075940;28;20040;-62
2023/01/17 14:09:19;;;;;;;10.68;6.75;;;8.10;99.90;;;;;;5094675;28;20085;-62
2023/01/17 14:12:04;;;;;;;12.02;4.15;;;7.70;99.90;;;;;;5094944;28;20032;-62
2023/01/17 14:14:38;;;;;;;9.45;3.33;;;7.70;99.90;;;;;;5094843;28;20033;-63
2023/01/17 14:17:15;;;;;;;11.30;4.40;;;7.80;99.90;;;;;;5095178;28;20108;-63
2023/01/17 14:19:45;;;;;;;15.70;6.38;;;7.50;99.90;;;;;;5094750;28;20036;-63
2023/01/17 14:22:35;;;;;;;10.35;4.00;;;7.30;99.90;;;;;;5094248;28;20039;-63
2023/01/17 14:25:08;;;;;;;12.52;4.60;;;7.30;99.90;;;;;;5072038;28;20095;-62
2023/01/17 14:27:44;;;;;;;9.98;4.93;;;7.20;99.90;;;;;;5071897;28;20040;-63
2023/01/17 14:30:25;;;;;;;11.48;4.07;;;7.30;99.90;;;;;;5072046;28;20047;-62
2023/01/17 14:33:24;;;;;;;9.07;3.90;;;7.40;99.90;;;;;;5071974;28;20040;-63
2023/01/17 14:36:13;;;;;;;9.93;3.90;;;7.30;99.90;;;;;;5066528;28;20185;-63
2023/01/17 14:38:43;;;;;;;12.65;5.07;;;7.10;99.90;;;;;;5071602;28;20025;-63
2023/01/17 14:41:16;;;;;;;10.20;2.85;;;7.30;99.90;;;;;;5072348;28;20509;-62